Time;durP1;ratioP1;P1;durP2;ratioP2;P2;SDS_P1;SDS_P2;PMS_P1;PMS_P2;Temp;Humidity;BMP_temperature;BMP_pressure;BME280_temperature;BME280_humidity;BME280_pressure;Samples;Min_cycle;Max_cycle;Signal;HPM_P1;HPM_P2
2022/04/29 00:01:22;;;;;;;7.07;5.32;;;8.70;99.90;;;;;;5051868;28;20024;-73
2022/04/29 00:03:47;;;;;;;6.07;4.95;;;8.60;99.90;;;;;;5050654;28;20089;-73
2022/04/29 00:06:14;;;;;;;5.88;4.60;;;8.60;99.90;;;;;;5051891;28;20025;-73
2022/04/29 00:08:40;;;;;;;6.05;4.88;;;8.60;99.90;;;;;;5051616;28;20041;-72
2022/04/29 00:11:06;;;;;;;5.38;4.28;;;8.60;99.90;;;;;;5050324;28;20044;-73
2022/04/29 00:13:32;;;;;;;5.90;5.15;;;8.60;99.90;;;;;;5051627;28;20025;-73
2022/04/29 00:15:58;;;;;;;6.93;5.00;;;8.60;99.90;;;;;;5051062;28;20033;-73
2022/04/29 00:18:24;;;;;;;6.28;4.90;;;8.60;99.90;;;;;;5051664;28;20481;-73
2022/04/29 00:20:49;;;;;;;7.22;5.53;;;8.60;99.90;;;;;;5050649;28;20024;-73
2022/04/29 00:23:16;;;;;;;6.40;5.57;;;8.50;99.90;;;;;;5051356;28;20025;-73
2022/04/29 00:25:41;;;;;;;7.03;5.50;;;8.50;99.90;;;;;;5051338;28;20459;-73
2022/04/29 00:28:07;;;;;;;7.50;5.97;;;8.50;99.90;;;;;;5050907;28;20033;-73
2022/04/29 00:30:33;;;;;;;7.40;5.90;;;8.40;99.90;;;;;;5050664;28;20021;-73
2022/04/29 00:32:59;;;;;;;8.50;6.35;;;8.30;99.90;;;;;;5050601;28;20029;-73
2022/04/29 00:35:26;;;;;;;7.55;5.18;;;8.30;99.90;;;;;;5050825;28;20466;-73
2022/04/29 00:37:53;;;;;;;9.07;5.53;;;;;;;;;;5050699;28;20045;-73
2022/04/29 00:40:23;;;;;;;5.63;4.70;;;8.10;99.90;;;;;;5051567;28;20040;-72
2022/04/29 00:42:49;;;;;;;5.13;4.63;;;8.10;99.90;;;;;;5036687;28;20061;-73
2022/04/29 00:45:17;;;;;;;6.45;5.07;;;8.10;99.90;;;;;;5049859;28;20116;-73
2022/04/29 00:47:44;;;;;;;6.93;5.15;;;8.00;99.90;;;;;;5051455;28;20478;-72
2022/04/29 00:50:11;;;;;;;7.50;5.07;;;8.00;99.90;;;;;;5050953;28;20080;-73
2022/04/29 00:52:44;;;;;;;8.13;5.45;;;8.00;99.90;;;;;;5051488;28;20029;-73
2022/04/29 00:55:10;;;;;;;6.22;5.57;;;8.00;99.90;;;;;;5050707;28;20044;-73
2022/04/29 00:58:07;;;;;;;6.32;5.15;;;8.00;99.90;;;;;;5050108;28;20029;-73
2022/04/29 01:00:34;;;;;;;10.00;5.55;;;7.90;99.90;;;;;;5045549;28;20044;-73
2022/04/29 01:03:00;;;;;;;9.52;5.97;;;7.80;99.90;;;;;;5051100;28;20124;-73
2022/04/29 01:05:26;;;;;;;7.97;5.50;;;7.80;99.90;;;;;;5050819;28;20041;-73
2022/04/29 01:07:53;;;;;;;8.27;5.50;;;7.70;99.90;;;;;;5050625;28;20098;-73
2022/04/29 01:10:20;;;;;;;6.45;5.03;;;7.70;99.90;;;;;;5051266;28;20132;-73
2022/04/29 01:12:50;;;;;;;8.05;5.70;;;7.60;99.90;;;;;;5050872;28;20065;-73
2022/04/29 01:15:18;;;;;;;6.60;5.47;;;7.60;99.90;;;;;;5050541;28;20036;-72
2022/04/29 01:17:46;;;;;;;7.85;5.80;;;7.60;99.90;;;;;;5051406;28;20475;-73
2022/04/29 01:20:15;;;;;;;9.20;6.05;;;7.60;99.90;;;;;;5050460;28;20025;-73
2022/04/29 01:22:45;;;;;;;7.50;5.85;;;7.60;99.90;;;;;;5051767;28;20488;-73
2022/04/29 01:25:12;;;;;;;7.68;5.75;;;7.60;99.90;;;;;;5053726;28;20041;-73
2022/04/29 01:27:38;;;;;;;9.77;5.32;;;7.60;99.90;;;;;;5055211;28;20509;-72
2022/04/29 01:30:07;;;;;;;6.70;6.00;;;7.60;99.90;;;;;;5053601;28;20046;-73
2022/04/29 01:32:36;;;;;;;6.30;5.68;;;7.70;99.90;;;;;;5054863;28;20025;-73
2022/04/29 01:35:03;;;;;;;8.00;5.37;;;7.60;99.90;;;;;;5053691;28;20033;-73
2022/04/29 01:37:29;;;;;;;6.13;5.32;;;7.60;99.90;;;;;;5054113;28;20033;-72
2022/04/29 01:39:55;;;;;;;7.85;6.20;;;7.60;99.90;;;;;;5053446;28;20028;-73
2022/04/29 01:42:21;;;;;;;7.47;6.05;;;7.50;99.90;;;;;;5053787;28;20490;-73
2022/04/29 01:44:47;;;;;;;6.57;5.75;;;7.50;99.90;;;;;;5053928;28;20064;-73
2022/04/29 01:47:13;;;;;;;14.32;6.10;;;7.40;99.90;;;;;;5053847;28;20051;-72
2022/04/29 01:49:38;;;;;;;9.50;6.70;;;7.30;99.90;;;;;;5054649;28;20153;-73
2022/04/29 01:52:05;;;;;;;8.55;6.28;;;7.30;99.90;;;;;;5053570;28;20033;-73
2022/04/29 01:54:30;;;;;;;7.97;6.05;;;7.20;99.90;;;;;;5054174;28;20044;-72
2022/04/29 01:56:56;;;;;;;7.75;5.57;;;7.20;99.90;;;;;;5053046;28;20441;-73
2022/04/29 01:59:22;;;;;;;8.10;5.70;;;7.10;99.90;;;;;;5052955;28;20067;-73
2022/04/29 02:01:48;;;;;;;9.98;5.93;;;7.10;99.90;;;;;;5053710;28;20082;-73
2022/04/29 02:04:14;;;;;;;7.43;6.68;;;7.10;99.90;;;;;;5053793;28;20112;-73
2022/04/29 02:06:41;;;;;;;7.18;5.97;;;7.00;99.90;;;;;;5054008;28;20030;-73
2022/04/29 02:09:08;;;;;;;7.72;6.65;;;7.00;99.90;;;;;;5052009;28;20190;-73
2022/04/29 02:11:37;;;;;;;7.97;6.63;;;7.00;99.90;;;;;;5053059;28;20029;-72
2022/04/29 02:14:02;;;;;;;9.48;6.80;;;7.00;99.90;;;;;;5052612;28;20112;-72
2022/04/29 02:16:28;;;;;;;8.45;6.82;;;7.10;99.90;;;;;;5053779;28;20184;-72
2022/04/29 02:18:54;;;;;;;7.18;5.70;;;7.10;99.90;;;;;;5053067;28;20391;-73
2022/04/29 02:21:20;;;;;;;8.68;5.85;;;7.10;99.90;;;;;;5053740;28;20411;-72
2022/04/29 02:23:46;;;;;;;8.20;6.25;;;7.10;99.90;;;;;;5053644;28;20154;-72
2022/04/29 02:26:11;;;;;;;9.57;6.50;;;7.10;99.90;;;;;;5052820;28;20647;-73
2022/04/29 02:28:37;;;;;;;10.85;7.25;;;7.10;99.90;;;;;;5053170;28;20104;-72
2022/04/29 02:31:04;;;;;;;7.32;6.55;;;7.10;99.90;;;;;;5052413;28;20029;-73
2022/04/29 02:33:30;;;;;;;9.15;6.72;;;7.10;99.90;;;;;;5053539;28;20029;-73
2022/04/29 02:35:56;;;;;;;7.32;6.35;;;7.10;99.90;;;;;;5051983;28;20040;-73
2022/04/29 02:38:22;;;;;;;8.10;6.32;;;7.00;99.90;;;;;;5053593;28;20025;-73
2022/04/29 02:40:50;;;;;;;7.13;6.07;;;6.90;99.90;;;;;;5040247;28;20025;-73
2022/04/29 02:43:17;;;;;;;8.98;6.38;;;6.80;99.90;;;;;;5052653;28;20036;-73
2022/04/29 02:45:43;;;;;;;8.73;6.20;;;6.80;99.90;;;;;;5052892;28;20450;-73
2022/04/29 02:48:09;;;;;;;7.30;6.03;;;6.80;99.90;;;;;;5052597;28;20052;-73
2022/04/29 02:50:35;;;;;;;6.22;5.60;;;6.70;99.90;;;;;;5052763;28;20061;-73
2022/04/29 02:53:00;;;;;;;7.97;6.03;;;6.60;99.90;;;;;;5052441;28;20425;-73
2022/04/29 02:55:26;;;;;;;7.82;5.90;;;6.60;99.90;;;;;;5053081;28;20587;-72
2022/04/29 02:57:52;;;;;;;8.20;6.35;;;6.60;99.90;;;;;;5052986;28;20025;-73
2022/04/29 03:00:17;;;;;;;8.07;6.43;;;6.60;99.90;;;;;;5052016;28;20055;-72
2022/04/29 03:02:43;;;;;;;10.27;7.35;;;6.60;99.90;;;;;;5052824;28;20474;-72
2022/04/29 03:05:09;;;;;;;11.07;7.47;;;6.60;99.90;;;;;;5051984;28;20472;-72
2022/04/29 03:07:34;;;;;;;9.43;7.65;;;6.60;99.90;;;;;;5052722;28;20460;-72
2022/04/29 03:10:00;;;;;;;8.90;7.68;;;6.50;99.90;;;;;;5052083;28;20075;-73
2022/04/29 03:12:25;;;;;;;11.00;6.43;;;6.50;99.90;;;;;;5052683;28;20024;-72
2022/04/29 03:14:51;;;;;;;9.85;7.15;;;6.50;99.90;;;;;;5052393;28;20025;-72
2022/04/29 03:20:01;;;;;;;8.80;7.20;;;6.50;99.90;;;;;;5051703;28;20024;-72
2022/04/29 03:22:27;;;;;;;10.68;7.35;;;6.40;99.90;;;;;;5051256;28;20462;-72
2022/04/29 03:24:54;;;;;;;12.15;7.60;;;6.40;99.90;;;;;;5052349;28;20104;-72
2022/04/29 03:27:19;;;;;;;9.07;6.68;;;6.40;99.90;;;;;;5051982;28;20032;-72
2022/04/29 03:29:45;;;;;;;8.77;6.85;;;6.40;99.90;;;;;;5050962;28;20103;-72
2022/04/29 03:32:12;;;;;;;10.45;7.47;;;6.30;99.90;;;;;;5050896;28;20037;-72
2022/04/29 03:34:37;;;;;;;9.77;7.38;;;6.30;99.90;;;;;;5052490;28;20029;-73
2022/04/29 03:37:03;;;;;;;8.05;7.05;;;6.20;99.90;;;;;;5051460;28;20079;-72
2022/04/29 03:39:29;;;;;;;7.55;6.75;;;6.20;99.90;;;;;;5052234;28;20033;-72
2022/04/29 03:41:55;;;;;;;8.63;6.72;;;6.20;99.90;;;;;;5051732;28;20040;-73
2022/04/29 03:44:21;;;;;;;8.00;7.20;;;6.20;99.90;;;;;;5051567;28;20039;-72
2022/04/29 03:46:46;;;;;;;9.00;6.93;;;6.20;99.90;;;;;;5051212;28;20382;-72
2022/04/29 03:51:57;;;;;;;9.82;7.47;;;6.10;99.90;;;;;;5051176;28;20044;-73
2022/04/29 03:54:23;;;;;;;8.77;6.68;;;6.10;99.90;;;;;;5051947;28;20037;-72
2022/04/29 03:56:48;;;;;;;9.02;6.85;;;6.10;99.90;;;;;;5052046;28;20037;-71
2022/04/29 03:59:14;;;;;;;10.57;7.78;;;6.10;99.90;;;;;;5051147;28;20028;-72
2022/04/29 04:01:42;;;;;;;9.85;8.35;;;6.10;99.90;;;;;;5051054;28;20032;-71
2022/04/29 04:04:07;;;;;;;11.80;8.38;;;6.10;99.90;;;;;;5051422;28;20070;-70
2022/04/29 04:06:51;;;;;;;9.27;8.20;;;6.10;99.90;;;;;;5051429;28;20037;-70
2022/04/29 04:09:20;;;;;;;9.02;7.40;;;6.10;99.90;;;;;;5050924;28;20679;-70
2022/04/29 04:11:46;;;;;;;9.63;8.00;;;6.10;99.90;;;;;;5051531;28;20039;-71
2022/04/29 04:14:11;;;;;;;9.70;7.40;;;6.10;99.90;;;;;;5050731;28;20033;-71
2022/04/29 04:16:37;;;;;;;9.07;7.70;;;6.00;99.90;;;;;;5050108;28;20036;-71
2022/04/29 04:19:04;;;;;;;11.35;8.00;;;6.00;99.90;;;;;;5051253;28;20025;-71
2022/04/29 04:21:30;;;;;;;8.55;7.65;;;6.00;99.90;;;;;;5051282;28;20037;-71
2022/04/29 04:23:56;;;;;;;9.65;7.15;;;6.00;99.90;;;;;;5051245;28;20379;-71
2022/04/29 04:26:22;;;;;;;12.68;8.48;;;6.00;99.90;;;;;;5051276;28;20078;-71
2022/04/29 04:28:48;;;;;;;10.35;8.02;;;6.10;99.90;;;;;;5051747;28;20017;-71
2022/04/29 04:31:13;;;;;;;10.77;8.15;;;6.10;99.90;;;;;;5050678;28;20033;-71
2022/04/29 04:33:39;;;;;;;9.40;8.32;;;6.20;99.90;;;;;;5051316;28;20108;-71
2022/04/29 04:36:05;;;;;;;10.43;8.02;;;6.20;99.90;;;;;;5050860;28;20047;-71
2022/04/29 04:38:32;;;;;;;10.38;8.48;;;6.30;99.90;;;;;;5051354;28;20102;-71
2022/04/29 04:40:58;;;;;;;11.25;7.97;;;6.40;99.90;;;;;;5050030;28;20428;-72
2022/04/29 04:43:27;;;;;;;9.02;7.65;;;6.50;99.90;;;;;;5050564;28;20017;-71
2022/04/29 04:45:53;;;;;;;8.63;7.38;;;6.60;99.90;;;;;;5050806;28;20393;-71
2022/04/29 04:48:20;;;;;;;9.45;7.50;;;6.60;99.90;;;;;;5049293;28;20025;-71
2022/04/29 04:50:46;;;;;;;10.00;7.47;;;6.70;99.90;;;;;;5049994;28;20033;-71
2022/04/29 04:53:12;;;;;;;9.07;7.25;;;6.80;99.90;;;;;;5049702;28;20025;-71
2022/04/29 04:55:38;;;;;;;9.90;7.65;;;6.90;99.90;;;;;;5051427;28;20116;-71
2022/04/29 04:58:04;;;;;;;8.20;7.03;;;7.00;99.90;;;;;;5051388;28;20029;-71
2022/04/29 05:00:30;;;;;;;7.95;6.50;;;7.00;99.90;;;;;;5055123;28;20454;-71
2022/04/29 05:02:56;;;;;;;9.60;7.63;;;7.10;99.90;;;;;;5055541;28;20051;-69
2022/04/29 05:05:21;;;;;;;12.57;8.20;;;7.20;99.90;;;;;;5054234;28;20021;-70
2022/04/29 05:07:47;;;;;;;10.65;7.63;;;7.30;99.90;;;;;;5055054;28;20429;-71
2022/04/29 05:10:13;;;;;;;13.43;8.68;;;7.30;99.90;;;;;;5053953;28;22037;-71
2022/04/29 05:12:44;;;;;;;9.98;8.07;;;7.40;99.90;;;;;;5054894;28;20355;-71
2022/04/29 05:15:11;;;;;;;13.70;9.50;;;7.50;99.90;;;;;;5043009;28;20033;-75
2022/04/29 05:17:40;;;;;;;14.85;9.50;;;7.60;99.90;;;;;;5054692;28;20036;-75
2022/04/29 05:20:08;;;;;;;14.38;10.02;;;7.70;99.90;;;;;;5053775;28;20037;-73
2022/04/29 05:22:33;;;;;;;18.80;9.65;;;7.80;99.90;;;;;;5054425;28;20032;-73
2022/04/29 05:24:59;;;;;;;11.35;9.65;;;7.80;99.90;;;;;;5054460;28;20024;-71
2022/04/29 05:27:25;;;;;;;14.23;9.30;;;7.80;99.90;;;;;;5054632;28;20466;-76
2022/04/29 05:29:51;;;;;;;14.57;9.75;;;7.80;99.90;;;;;;5054573;28;20078;-72
2022/04/29 05:32:17;;;;;;;16.30;10.90;;;7.90;99.90;;;;;;5053458;28;20029;-70
2022/04/29 05:34:43;;;;;;;13.57;10.32;;;7.90;99.90;;;;;;5054305;28;20118;-79
2022/04/29 05:37:09;;;;;;;14.95;11.00;;;8.00;99.90;;;;;;5052299;28;20175;-70
2022/04/29 05:42:21;;;;;;;14.65;10.40;;;8.00;99.90;;;;;;5046009;28;20032;-71
2022/04/29 05:44:47;;;;;;;17.52;11.07;;;8.10;99.90;;;;;;5053844;28;20025;-71
2022/04/29 05:47:13;;;;;;;18.25;11.15;;;8.10;99.90;;;;;;5052721;28;20040;-71
2022/04/29 05:49:39;;;;;;;16.75;11.63;;;8.20;99.90;;;;;;5064145;28;20455;-71
2022/04/29 05:52:06;;;;;;;21.70;11.13;;;8.20;99.90;;;;;;5041812;28;20058;-71
2022/04/29 05:54:32;;;;;;;19.00;11.38;;;8.30;99.90;;;;;;5054279;28;20068;-71
2022/04/29 05:56:59;;;;;;;15.23;12.13;;;8.40;99.90;;;;;;5053979;28;20024;-72
2022/04/29 05:59:24;;;;;;;16.10;10.00;;;8.50;99.90;;;;;;5053509;28;20027;-71
2022/04/29 06:01:50;;;;;;;15.90;10.80;;;8.60;99.90;;;;;;5053930;28;20191;-73
2022/04/29 06:04:16;;;;;;;15.65;10.80;;;8.70;99.90;;;;;;5053340;28;20450;-71
2022/04/29 06:06:42;;;;;;;26.95;14.13;;;8.80;99.90;;;;;;5053426;28;20041;-80
2022/04/29 06:09:08;;;;;;;15.38;10.70;;;8.90;99.90;;;;;;5052087;28;20049;-77
2022/04/29 06:11:34;;;;;;;17.17;10.57;;;9.00;99.90;;;;;;5048443;28;20025;-80
2022/04/29 06:13:59;;;;;;;22.48;11.95;;;9.10;99.90;;;;;;5055168;28;20462;-80
2022/04/29 06:16:26;;;;;;;34.05;13.27;;;9.30;99.90;;;;;;5053875;28;20040;-80
2022/04/29 06:18:51;;;;;;;16.88;10.85;;;9.60;99.90;;;;;;5053483;28;20040;-81
2022/04/29 06:21:18;;;;;;;14.80;10.38;;;9.70;99.90;;;;;;5052546;28;20037;-79
2022/04/29 06:23:44;;;;;;;19.25;11.98;;;9.90;99.90;;;;;;5053413;28;20050;-78
2022/04/29 06:26:10;;;;;;;25.75;13.25;;;10.00;99.90;;;;;;5052631;28;20074;-79
2022/04/29 06:28:36;;;;;;;32.90;14.38;;;10.10;99.90;;;;;;5052972;28;20072;-77
2022/04/29 06:31:02;;;;;;;19.05;11.65;;;10.30;99.90;;;;;;5052850;28;20466;-78
2022/04/29 06:33:32;;;;;;;18.13;12.18;;;10.40;99.90;;;;;;5052342;28;20083;-79
2022/04/29 06:35:57;;;;;;;15.27;11.32;;;10.60;99.90;;;;;;5049755;28;20038;-79
2022/04/29 06:38:23;;;;;;;21.08;12.07;;;10.60;99.90;;;;;;5052463;28;20406;-79
2022/04/29 06:40:50;;;;;;;19.98;11.32;;;10.80;99.90;;;;;;5052612;28;20145;-79
2022/04/29 06:43:16;;;;;;;33.88;14.38;;;11.00;99.90;;;;;;5050892;28;20035;-79
2022/04/29 06:45:42;;;;;;;20.30;11.15;;;11.20;99.90;;;;;;5052838;28;20035;-78
2022/04/29 06:48:08;;;;;;;20.55;11.35;;;11.30;99.90;;;;;;5053219;28;20108;-80
2022/04/29 06:50:34;;;;;;;14.00;10.27;;;11.40;99.90;;;;;;5052315;28;20521;-78
2022/04/29 06:53:00;;;;;;;19.02;11.32;;;11.50;99.90;;;;;;5052667;28;20040;-79
2022/04/29 06:55:27;;;;;;;14.90;10.35;;;11.70;99.90;;;;;;5051799;28;20032;-79
2022/04/29 06:57:52;;;;;;;19.80;10.20;;;11.90;99.90;;;;;;5052927;28;20055;-80
2022/04/29 07:00:19;;;;;;;14.70;10.05;;;12.10;99.90;;;;;;5046384;28;20519;-70
2022/04/29 07:02:45;;;;;;;13.85;10.10;;;12.20;99.90;;;;;;5051772;28;20039;-70
2022/04/29 07:05:11;;;;;;;13.57;9.88;;;12.40;99.90;;;;;;5051645;28;20032;-70
2022/04/29 07:07:37;;;;;;;16.98;10.82;;;12.60;99.90;;;;;;5052645;28;20057;-70
2022/04/29 07:10:04;;;;;;;17.58;9.95;;;12.80;99.90;;;;;;5051420;28;20564;-70
2022/04/29 07:12:33;;;;;;;15.00;9.50;;;12.80;99.90;;;;;;5051729;28;20096;-71
2022/04/29 07:14:59;;;;;;;15.53;9.47;;;12.90;99.90;;;;;;5052243;28;20120;-70
2022/04/29 07:17:26;;;;;;;15.50;9.27;;;13.20;99.90;;;;;;5051123;28;20353;-70
2022/04/29 07:19:53;;;;;;;18.10;10.00;;;13.30;99.90;;;;;;5051787;28;20029;-71
2022/04/29 07:22:19;;;;;;;12.10;9.85;;;13.30;99.90;;;;;;5050594;28;20025;-71
2022/04/29 07:24:45;;;;;;;15.38;10.15;;;13.30;99.90;;;;;;5052362;28;20037;-72
2022/04/29 07:27:13;;;;;;;17.48;9.75;;;13.20;99.90;;;;;;5051812;28;20029;-70
2022/04/29 07:29:38;;;;;;;18.20;9.95;;;13.20;99.90;;;;;;5052236;28;20025;-70
2022/04/29 07:32:04;;;;;;;14.20;9.60;;;13.20;99.90;;;;;;5052519;28;20033;-71
2022/04/29 07:42:43;;;;;;;19.65;11.05;;;13.40;99.90;;;;;;5052107;28;20094;-71
2022/04/29 07:45:08;;;;;;;15.05;10.27;;;13.50;99.90;;;;;;5051794;28;20462;-71
2022/04/29 07:47:36;;;;;;;15.30;11.00;;;13.70;99.10;;;;;;5050958;28;20099;-71
2022/04/29 07:50:05;;;;;;;14.95;10.57;;;13.90;98.70;;;;;;5051288;28;20655;-72
2022/04/29 07:52:32;;;;;;;23.52;11.32;;;13.90;98.40;;;;;;5051246;28;20040;-70
2022/04/29 07:54:57;;;;;;;15.52;10.57;;;14.10;97.40;;;;;;5051846;28;20463;-72
2022/04/29 07:57:23;;;;;;;16.10;11.05;;;14.10;96.90;;;;;;5051362;28;20033;-69
2022/04/29 07:59:49;;;;;;;17.02;10.98;;;14.20;96.00;;;;;;5051448;28;20035;-70
2022/04/29 08:02:15;;;;;;;18.13;10.93;;;14.20;95.90;;;;;;5050886;28;20495;-71
2022/04/29 08:04:41;;;;;;;14.05;9.98;;;14.20;95.90;;;;;;5050974;28;20021;-70
2022/04/29 08:07:06;;;;;;;22.23;12.02;;;14.20;95.90;;;;;;5051293;28;20162;-70
2022/04/29 08:09:32;;;;;;;15.02;10.90;;;14.20;95.70;;;;;;5051032;28;20049;-71
2022/04/29 08:11:58;;;;;;;20.85;12.07;;;14.10;95.30;;;;;;5051304;28;20386;-71
2022/04/29 08:14:24;;;;;;;20.67;11.60;;;14.10;95.10;;;;;;5050472;28;20044;-70
2022/04/29 08:16:50;;;;;;;18.60;11.18;;;14.00;95.20;;;;;;5049849;28;20044;-71
2022/04/29 08:19:15;;;;;;;19.42;11.25;;;13.90;95.20;;;;;;5047353;28;20033;-70
2022/04/29 08:21:41;;;;;;;14.65;11.30;;;13.80;95.00;;;;;;5050116;28;20036;-71
2022/04/29 08:24:07;;;;;;;15.90;10.05;;;13.80;95.70;;;;;;5051168;28;20045;-71
2022/04/29 08:26:33;;;;;;;19.35;10.55;;;13.80;95.70;;;;;;5050745;28;20025;-70
2022/04/29 08:28:58;;;;;;;14.95;10.48;;;14.00;95.70;;;;;;5051797;28;20090;-71
2022/04/29 08:31:25;;;;;;;21.98;10.63;;;14.20;95.00;;;;;;5050466;28;20025;-70
2022/04/29 08:33:50;;;;;;;13.40;10.07;;;14.50;93.60;;;;;;5054964;28;20052;-70
2022/04/29 08:36:17;;;;;;;18.52;10.40;;;14.70;94.40;;;;;;5054759;28;20462;-70
2022/04/29 08:38:43;;;;;;;13.10;9.65;;;15.00;92.60;;;;;;5055769;28;20111;-71
2022/04/29 08:41:09;;;;;;;17.80;9.90;;;15.20;91.50;;;;;;5045564;28;20108;-71
2022/04/29 08:43:35;;;;;;;16.95;10.40;;;15.50;90.60;;;;;;5034824;28;20615;-71
2022/04/29 08:46:02;;;;;;;12.68;9.18;;;15.70;89.70;;;;;;5045642;28;20033;-69
2022/04/29 08:48:31;;;;;;;12.45;9.57;;;15.80;87.50;;;;;;5052532;28;20421;-70
2022/04/29 08:51:01;;;;;;;16.23;8.98;;;16.00;87.10;;;;;;5055117;28;20489;-71
2022/04/29 08:53:27;;;;;;;15.75;8.77;;;;;;;;;;5053837;28;20053;-70
2022/04/29 08:58:38;;;;;;;10.57;7.95;;;16.70;82.30;;;;;;5038838;28;20052;-70
2022/04/29 09:01:13;;;;;;;13.50;8.48;;;16.80;80.60;;;;;;5051223;28;20359;-69
2022/04/29 09:03:42;;;;;;;13.45;8.05;;;16.90;78.30;;;;;;5054867;28;20024;-69
2022/04/29 09:06:07;;;;;;;10.75;7.95;;;16.90;78.80;;;;;;5054900;28;20032;-69
2022/04/29 09:08:44;;;;;;;12.35;7.93;;;16.80;77.10;;;;;;5054229;28;20891;-74
2022/04/29 09:11:11;;;;;;;14.40;7.97;;;16.90;77.80;;;;;;5053423;28;20079;-74
2022/04/29 09:13:39;;;;;;;12.65;7.80;;;17.20;76.10;;;;;;5054190;28;20143;-73
2022/04/29 09:16:10;;;;;;;14.02;7.13;;;17.30;76.80;;;;;;5053520;28;20032;-73
2022/04/29 09:18:41;;;;;;;15.80;8.43;;;17.50;73.90;;;;;;5053804;28;20524;-73
2022/04/29 09:21:17;;;;;;;17.95;8.10;;;17.60;72.80;;;;;;5054455;28;20037;-74
2022/04/29 09:23:56;;;;;;;10.80;7.25;;;17.80;70.80;;;;;;5053261;28;20028;-74
2022/04/29 09:26:24;;;;;;;11.25;7.80;;;17.90;71.70;;;;;;5049026;28;20075;-72
2022/04/29 09:28:54;;;;;;;12.18;7.32;;;18.10;69.30;;;;;;5049213;28;20021;-72
2022/04/29 09:31:20;;;;;;;11.68;7.03;;;18.30;68.90;;;;;;5041003;28;20426;-74
2022/04/29 09:33:55;;;;;;;10.27;6.78;;;18.50;67.20;;;;;;5044385;28;20040;-73
2022/04/29 09:36:22;;;;;;;8.63;6.15;;;18.70;66.30;;;;;;5053886;28;20037;-73
2022/04/29 09:41:57;;;;;;;11.20;6.03;;;18.90;64.50;;;;;;5051608;28;20052;-74
2022/04/29 09:44:41;;;;;;;9.32;6.18;;;18.90;63.60;;;;;;5035985;28;20033;-74
2022/04/29 09:47:15;;;;;;;8.10;6.00;;;19.00;63.30;;;;;;5043574;28;20052;-73
2022/04/29 09:49:50;;;;;;;7.65;5.85;;;19.30;62.20;;;;;;5053132;28;20048;-74
2022/04/29 09:52:18;;;;;;;15.60;6.10;;;;;;;;;;5054116;28;20034;-72
2022/04/29 09:54:44;;;;;;;20.58;5.57;;;;;;;;;;5053526;28;20036;-72
2022/04/29 09:57:16;;;;;;;6.60;5.00;;;20.40;58.40;;;;;;5054661;28;20040;-72
2022/04/29 09:59:53;;;;;;;7.32;4.70;;;20.50;59.10;;;;;;5053376;28;20036;-73
2022/04/29 10:02:24;;;;;;;9.15;4.85;;;20.50;56.30;;;;;;5049091;28;20423;-72
2022/04/29 10:04:51;;;;;;;7.90;4.30;;;20.30;55.50;;;;;;5050853;28;20051;-72
2022/04/29 10:07:18;;;;;;;10.32;5.07;;;20.20;55.50;;;;;;5054649;28;20037;-73
2022/04/29 10:09:49;;;;;;;6.07;3.80;;;20.10;56.50;;;;;;5053919;28;20053;-73
2022/04/29 10:12:23;;;;;;;5.30;4.38;;;20.20;56.90;;;;;;5054190;28;20033;-73
2022/04/29 10:14:53;;;;;;;5.47;4.15;;;19.90;56.90;;;;;;5054171;28;20037;-74
2022/04/29 10:22:52;;;;;;;5.68;4.05;;;19.60;55.90;;;;;;5053652;28;20398;-74
2022/04/29 10:25:25;;;;;;;6.13;3.83;;;19.70;56.50;;;;;;5053779;28;20036;-73
2022/04/29 10:27:52;;;;;;;5.53;3.92;;;19.80;56.00;;;;;;5053519;28;20543;-73
2022/04/29 10:30:33;;;;;;;7.53;4.50;;;19.90;55.70;;;;;;5053450;28;20033;-73
2022/04/29 10:33:06;;;;;;;3.65;3.00;;;20.10;55.90;;;;;;5053782;28;20024;-73
2022/04/29 10:35:45;;;;;;;5.82;3.97;;;20.40;54.50;;;;;;5052904;28;20029;-73
2022/04/29 10:38:26;;;;;;;7.25;3.08;;;20.70;51.80;;;;;;5053708;28;20037;-73
2022/04/29 10:41:13;;;;;;;4.22;2.75;;;20.80;50.60;;;;;;5053544;28;20032;-73
2022/04/29 10:43:46;;;;;;;2.58;2.35;;;20.80;49.50;;;;;;5052826;28;20035;-73
2022/04/29 10:46:13;;;;;;;4.10;2.55;;;20.90;48.50;;;;;;5053732;28;20040;-73
2022/04/29 10:48:40;;;;;;;5.55;3.20;;;20.90;49.30;;;;;;5052522;28;20458;-73
2022/04/29 10:51:18;;;;;;;3.60;2.65;;;21.20;47.80;;;;;;5053765;28;20040;-73
2022/04/29 10:53:46;;;;;;;5.85;3.20;;;21.40;47.30;;;;;;5052231;28;20048;-73
2022/04/29 10:56:32;;;;;;;3.75;2.90;;;21.40;46.40;;;;;;5052857;28;20493;-73
2022/04/29 10:59:04;;;;;;;8.02;3.85;;;21.40;47.40;;;;;;5053206;28;20474;-73
2022/04/29 11:01:33;;;;;;;4.72;2.80;;;21.50;47.40;;;;;;5052638;28;20032;-74
2022/04/29 11:04:00;;;;;;;2.88;2.65;;;21.50;47.80;;;;;;5053196;28;20112;-74
2022/04/29 11:06:44;;;;;;;8.73;3.00;;;21.70;48.70;;;;;;5052361;28;20075;-74
2022/04/29 11:09:28;;;;;;;5.68;3.88;;;21.80;47.30;;;;;;5052879;28;20057;-73
2022/04/29 11:11:56;;;;;;;4.57;2.22;;;22.00;47.30;;;;;;5052860;28;20025;-74
2022/04/29 11:14:22;;;;;;;3.45;2.72;;;22.10;46.10;;;;;;5050886;28;20032;-74
2022/04/29 11:16:52;;;;;;;4.40;3.35;;;22.20;45.60;;;;;;5052298;28;20071;-74
2022/04/29 11:19:20;;;;;;;5.57;3.20;;;;;;;;;;5052563;28;20470;-75
2022/04/29 11:24:48;;;;;;;4.40;2.75;;;22.50;45.60;;;;;;5051992;28;20039;-73
2022/04/29 11:27:17;;;;;;;3.85;2.97;;;22.70;45.70;;;;;;5052641;28;20035;-73
2022/04/29 11:29:44;;;;;;;14.73;4.15;;;22.90;44.90;;;;;;5052155;28;20090;-74
2022/04/29 11:32:10;;;;;;;7.00;3.13;;;22.90;44.10;;;;;;5052934;28;20513;-74
2022/04/29 11:34:57;;;;;;;6.10;2.58;;;22.80;43.60;;;;;;5051656;28;20032;-74
2022/04/29 11:37:24;;;;;;;5.60;3.20;;;22.70;44.70;;;;;;5052701;28;20025;-74
2022/04/29 11:39:52;;;;;;;4.55;2.72;;;22.50;43.80;;;;;;5052127;28;20029;-74
2022/04/29 11:42:18;;;;;;;6.93;3.20;;;22.30;43.80;;;;;;5052137;28;20511;-73
2022/04/29 11:44:45;;;;;;;6.88;3.22;;;22.20;44.90;;;;;;5051212;28;20652;-73
2022/04/29 11:47:12;;;;;;;5.50;3.15;;;22.00;45.30;;;;;;5052447;28;20068;-75
2022/04/29 11:49:38;;;;;;;3.00;2.70;;;21.90;44.80;;;;;;5051724;28;20120;-73
2022/04/29 11:52:23;;;;;;;3.40;2.63;;;22.00;45.70;;;;;;5052196;28;20029;-74
2022/04/29 11:54:59;;;;;;;3.05;2.55;;;22.00;44.80;;;;;;5051511;28;20037;-76
2022/04/29 11:57:28;;;;;;;5.18;2.83;;;22.10;44.30;;;;;;5051836;28;20033;-74
2022/04/29 11:59:54;;;;;;;4.18;3.15;;;22.10;44.20;;;;;;5051841;28;20029;-74
2022/04/29 12:02:22;;;;;;;4.88;2.80;;;21.80;44.10;;;;;;5052074;28;20032;-75
2022/04/29 12:05:03;;;;;;;5.15;2.55;;;21.70;45.70;;;;;;5051083;28;20036;-73
2022/04/29 12:07:37;;;;;;;4.50;2.53;;;21.70;45.50;;;;;;5051025;28;20092;-73
2022/04/29 12:10:26;;;;;;;4.78;3.40;;;21.80;45.00;;;;;;5052232;28;20057;-74
2022/04/29 12:12:56;;;;;;;3.10;2.77;;;21.70;45.40;;;;;;5051235;28;20501;-74
2022/04/29 12:15:30;;;;;;;3.67;2.80;;;21.70;45.10;;;;;;5050360;28;20288;-74
2022/04/29 12:18:01;;;;;;;5.65;3.13;;;21.70;44.90;;;;;;5051988;28;20033;-73
2022/04/29 12:20:32;;;;;;;2.88;2.58;;;21.70;45.10;;;;;;5051373;28;20021;-73
2022/04/29 12:23:20;;;;;;;2.83;2.42;;;21.60;44.10;;;;;;5051706;28;20398;-72
2022/04/29 12:25:47;;;;;;;2.78;2.22;;;21.50;44.60;;;;;;5051050;28;20037;-73
2022/04/29 12:28:19;;;;;;;5.03;2.53;;;21.50;45.00;;;;;;5051734;28;20082;-73
2022/04/29 12:36:47;;;;;;;8.60;3.03;;;21.20;44.90;;;;;;5051061;28;20044;-73
2022/04/29 12:39:13;;;;;;;6.32;2.80;;;21.20;44.30;;;;;;5052028;28;20041;-75
2022/04/29 12:41:38;;;;;;;5.57;2.63;;;21.30;45.40;;;;;;5051094;28;20019;-73
2022/04/29 12:45:03;;;;;;;4.07;3.30;;;21.50;44.80;;;;;;5051555;28;20448;-73
2022/04/29 12:47:00;;;;;;;6.05;3.17;;;21.70;44.20;;;;;;5051313;28;20075;-73
2022/04/29 12:49:26;;;;;;;3.83;3.13;;;22.10;43.40;;;;;;5031649;28;20033;-73
2022/04/29 12:52:01;;;;;;;4.80;3.20;;;23.10;41.40;;;;;;5030992;28;20040;-72
2022/04/29 12:54:27;;;;;;;4.70;3.70;;;23.20;42.00;;;;;;5031664;28;20340;-72
2022/04/29 12:56:53;;;;;;;7.13;3.38;;;23.60;41.70;;;;;;5029884;28;20117;-73
2022/04/29 12:59:24;;;;;;;7.60;3.13;;;23.80;41.80;;;;;;5031501;28;20060;-73
2022/04/29 13:01:52;;;;;;;3.95;3.00;;;23.80;41.50;;;;;;5030795;28;20121;-73
2022/04/29 13:04:18;;;;;;;5.15;3.10;;;23.80;42.30;;;;;;5031663;28;20044;-74
2022/04/29 13:06:44;;;;;;;5.60;3.75;;;23.90;40.90;;;;;;5030594;28;20030;-72
2022/04/29 13:09:11;;;;;;;6.88;3.30;;;23.90;41.10;;;;;;5030252;28;20057;-73
2022/04/29 13:11:37;;;;;;;5.43;3.90;;;23.70;41.40;;;;;;5030968;28;20021;-73
2022/04/29 13:14:03;;;;;;;8.98;3.20;;;23.60;42.00;;;;;;5031251;28;20025;-73
2022/04/29 13:16:29;;;;;;;6.32;3.40;;;23.40;41.80;;;;;;5031242;28;20041;-73
2022/04/29 13:18:54;;;;;;;3.65;2.85;;;23.60;41.40;;;;;;5047709;28;20033;-73
2022/04/29 13:21:20;;;;;;;3.83;3.40;;;23.80;42.20;;;;;;5054752;28;20063;-73
2022/04/29 13:23:46;;;;;;;7.97;3.53;;;23.80;41.80;;;;;;5054038;28;20036;-73
2022/04/29 13:26:14;;;;;;;3.20;2.80;;;23.80;41.60;;;;;;5055006;28;20029;-73
2022/04/29 13:28:42;;;;;;;6.95;3.10;;;23.90;42.60;;;;;;5054191;28;20052;-73